Search for airport 
image banner adimage banner adimage banner ad
image banner ad

PA93 - Cherokee

Located in Brick Church Village, United States

ICAO - PA93, IATA -

Data provided by Airmate  

General information

Coordinates: N40°41'6" W79°27'24"
Elevation is 1175 feet MSL.
Magnetic variation is -09° East
View others Airports in Pennsylvania

Operational data

Special qualification required
Current time UTC:
Current local time:
METAR: KIDI 071235Z AUTO 13004KT 10SM FEW070 SCT085 08/02 A2990 RMK A01
View NOTAMs / SUP AIP / TFR affecting this airport [VIEW]
Communications frequencies: [VIEW]

Runways:

Airport contact information

Address: Brick Church Village United States

Satellite view of PA93